Time;durP1;ratioP1;P1;durP2;ratioP2;P2;SDS_P1;SDS_P2;PMS_P1;PMS_P2;Temp;Humidity;BMP_temperature;BMP_pressure;BME280_temperature;BME280_humidity;BME280_pressure;Samples;Min_cycle;Max_cycle;Signal;HPM_P1;HPM_P2
2022/11/03 00:01:47;;;;;;;11.45;5.70;;;8.60;81.80;;;6.97;100.00;96491.66;4857860;28;20429;-70
2022/11/03 00:04:15;;;;;;;10.20;5.72;;;8.60;82.30;;;6.97;100.00;96483.81;4875356;28;20383;-70
2022/11/03 00:06:42;;;;;;;9.68;5.65;;;8.60;82.80;;;6.99;100.00;96487.09;4853786;28;20377;-71
2022/11/03 00:09:11;;;;;;;12.18;5.63;;;8.70;82.90;;;6.99;100.00;96482.66;4852806;28;20510;-70
2022/11/03 00:11:38;;;;;;;9.93;5.35;;;8.70;82.40;;;7.00;100.00;96480.88;4888167;28;20645;-71
2022/11/03 00:14:05;;;;;;;8.45;5.20;;;8.60;82.20;;;7.00;100.00;96473.03;4873678;28;20274;-70
2022/11/03 00:16:31;;;;;;;11.70;5.63;;;8.60;82.10;;;7.01;100.00;96474.66;4856569;28;20502;-71
2022/11/03 00:18:57;;;;;;;11.20;5.00;;;8.60;82.10;;;7.02;100.00;96477.16;4859157;28;20456;-71
2022/11/03 00:21:24;;;;;;;8.52;5.07;;;8.70;82.20;;;7.03;100.00;96467.50;4857747;28;20445;-70
2022/11/03 00:23:50;;;;;;;11.02;6.03;;;8.70;82.10;;;7.03;100.00;96462.28;4845680;28;20366;-70
2022/11/03 00:26:19;;;;;;;9.73;5.13;;;8.60;81.90;;;7.02;100.00;96463.25;4860747;28;21010;-70
2022/11/03 00:28:47;;;;;;;8.60;5.18;;;8.60;81.50;;;7.00;100.00;96462.56;4880457;28;20448;-69
2022/11/03 00:31:24;;;;;;;7.18;4.85;;;8.60;81.00;;;6.96;100.00;96464.69;4850948;28;20327;-71
2022/11/03 00:33:51;;;;;;;7.00;4.13;;;8.60;80.30;;;6.92;100.00;96467.78;4857939;28;20359;-70
2022/11/03 00:36:22;;;;;;;9.20;4.78;;;8.50;80.30;;;6.86;100.00;96461.38;4868742;28;20485;-70
2022/11/03 00:38:49;;;;;;;8.45;4.93;;;8.50;80.60;;;6.83;100.00;96455.66;4857049;28;20442;-70
2022/11/03 00:41:19;;;;;;;9.05;5.00;;;8.50;80.80;;;6.79;100.00;96451.69;4846493;28;20443;-70
2022/11/03 00:43:45;;;;;;;10.43;5.13;;;8.40;80.90;;;6.76;100.00;96439.75;4852761;28;20574;-70
2022/11/03 00:46:12;;;;;;;10.35;5.15;;;8.40;81.00;;;6.73;100.00;96445.31;4855877;28;20280;-70
2022/11/03 00:48:37;;;;;;;15.82;5.40;;;8.30;81.20;;;6.70;100.00;96441.22;4870633;28;20585;-70
2022/11/03 00:51:22;;;;;;;8.73;5.40;;;8.30;81.40;;;6.69;100.00;96429.13;4905530;28;20306;-68
2022/11/03 00:53:56;;;;;;;11.10;5.00;;;8.40;81.30;;;6.68;100.00;96432.69;4966422;28;20030;-69
2022/11/03 00:56:22;;;;;;;12.50;5.03;;;8.40;81.10;;;6.67;100.00;96438.91;4934483;28;20107;-69
2022/11/03 00:58:49;;;;;;;9.73;5.35;;;8.30;80.80;;;6.63;100.00;96434.16;4950070;28;20618;-71
2022/11/03 01:01:16;;;;;;;10.23;5.28;;;8.30;80.20;;;6.59;100.00;96443.28;4950724;28;20029;-71
2022/11/03 01:06:48;;;;;;;9.70;5.75;;;8.20;80.40;;;6.54;100.00;96433.28;4949375;28;20060;-69
2022/11/03 01:06:52;;;;;;;11.90;5.82;;;8.20;80.60;;;6.52;100.00;96431.78;4951765;28;20447;-70
2022/11/03 01:09:34;;;;;;;7.70;5.53;;;8.10;81.10;;;6.48;100.00;96425.25;4953401;28;20218;-70
2022/11/03 01:12:11;;;;;;;9.45;5.70;;;8.10;81.30;;;6.44;100.00;96430.78;4917429;28;20033;-71
2022/11/03 01:14:42;;;;;;;10.30;5.82;;;8.10;81.40;;;6.42;100.00;96417.06;4944811;28;20069;-70
2022/11/03 01:17:14;;;;;;;8.35;5.18;;;8.10;81.40;;;6.41;100.00;96419.84;4917392;28;20157;-70
2022/11/03 01:19:40;;;;;;;10.35;6.07;;;8.00;81.30;;;6.38;100.00;96420.16;4936794;28;20115;-70
2022/11/03 01:22:06;;;;;;;8.00;5.03;;;8.00;81.20;;;6.35;100.00;96420.47;4908714;28;20343;-72
2022/11/03 01:24:34;;;;;;;9.77;5.35;;;8.00;81.20;;;6.33;100.00;96419.75;4856779;28;20372;-71
2022/11/03 01:27:00;;;;;;;10.23;6.57;;;8.00;81.30;;;6.33;100.00;96417.16;4906177;28;20262;-71
2022/11/03 01:29:26;;;;;;;10.20;6.05;;;8.00;81.70;;;6.31;100.00;96413.88;4862094;28;20371;-71
2022/11/03 01:31:52;;;;;;;9.40;5.85;;;8.00;81.70;;;6.28;100.00;96415.00;4860879;28;20492;-72
2022/11/03 01:34:20;;;;;;;7.97;5.85;;;7.90;81.80;;;6.29;100.00;96416.66;4874297;28;20348;-71
2022/11/03 01:36:46;;;;;;;8.88;6.18;;;7.90;81.90;;;6.29;100.00;96416.66;4858053;28;20691;-71
2022/11/03 01:39:17;;;;;;;10.98;6.50;;;7.90;82.10;;;6.28;100.00;96411.56;4864266;28;20458;-71
2022/11/03 01:41:45;;;;;;;11.65;6.15;;;7.90;82.10;;;6.29;100.00;96415.81;4864324;28;20033;-72
2022/11/03 01:44:11;;;;;;;10.90;6.50;;;8.00;82.30;;;6.30;100.00;96417.47;4850557;28;20460;-70
2022/11/03 01:46:43;;;;;;;13.63;6.07;;;8.00;82.20;;;6.29;100.00;96408.81;4945034;28;20352;-72
2022/11/03 01:49:14;;;;;;;10.15;6.75;;;8.00;82.20;;;6.28;100.00;96407.16;4947484;28;20041;-70
2022/11/03 01:51:40;;;;;;;11.73;6.55;;;8.00;82.40;;;6.29;100.00;96397.53;4929878;28;20651;-70
2022/11/03 01:54:09;;;;;;;10.63;7.00;;;8.00;82.50;;;6.29;100.00;96400.97;4945574;28;20569;-69
2022/11/03 01:56:39;;;;;;;11.10;6.22;;;8.10;82.60;;;6.31;100.00;96398.19;4926991;28;20156;-70
2022/11/03 01:59:05;;;;;;;10.65;6.55;;;8.00;82.70;;;6.31;100.00;96396.41;4933536;28;20037;-71
2022/11/03 02:01:31;;;;;;;10.15;7.00;;;8.10;82.70;;;6.32;100.00;96395.44;4920535;28;20391;-70
2022/11/03 02:04:12;;;;;;;10.02;6.43;;;8.10;82.80;;;6.34;100.00;96392.69;4950077;28;20059;-70
2022/11/03 02:06:37;;;;;;;10.45;6.93;;;8.10;82.80;;;6.34;100.00;96384.84;4932963;28;20568;-70
2022/11/03 02:09:06;;;;;;;9.55;7.07;;;8.10;82.90;;;6.34;100.00;96382.25;4896221;28;20049;-70
2022/11/03 02:14:17;;;;;;;10.65;6.90;;;8.10;83.10;;;6.34;100.00;96372.63;4926205;28;20361;-70
2022/11/03 02:16:56;;;;;;;11.27;7.40;;;8.10;83.00;;;6.34;100.00;96375.22;4927975;28;20866;-72
2022/11/03 02:19:32;;;;;;;11.73;7.10;;;8.10;83.10;;;6.34;100.00;96367.38;4935533;28;20046;-70
2022/11/03 02:22:24;;;;;;;12.35;6.45;;;8.10;83.10;;;6.34;100.00;96362.16;4929008;28;20111;-71
2022/11/03 02:25:03;;;;;;;9.77;6.80;;;8.10;83.30;;;6.35;100.00;96352.53;4943570;28;20040;-70
2022/11/03 02:27:29;;;;;;;9.45;6.75;;;8.10;83.30;;;6.36;100.00;96354.97;4950749;28;20314;-69
2022/11/03 02:29:56;;;;;;;11.50;6.50;;;8.10;83.30;;;6.37;100.00;96356.63;4933411;28;20211;-69
2022/11/03 02:32:34;;;;;;;14.93;7.00;;;8.10;83.10;;;6.38;100.00;96347.00;4918260;28;20165;-71
2022/11/03 02:35:10;;;;;;;11.35;6.57;;;8.10;83.00;;;6.39;100.00;96348.63;4907229;28;20148;-70
2022/11/03 02:37:37;;;;;;;10.40;6.53;;;8.10;83.00;;;6.36;100.00;96344.53;4949028;28;20033;-69
2022/11/03 02:40:11;;;;;;;9.25;6.47;;;8.10;83.20;;;6.35;100.00;96336.84;4936465;28;20037;-70
2022/11/03 02:42:37;;;;;;;8.30;6.00;;;8.10;83.20;;;6.35;100.00;96340.28;4956047;28;20068;-69
2022/11/03 02:45:07;;;;;;;8.73;6.25;;;8.10;83.10;;;6.33;100.00;96339.59;4922231;28;20296;-70
2022/11/03 02:47:33;;;;;;;10.07;6.38;;;8.10;83.00;;;6.30;100.00;96328.66;4911384;28;20034;-69
2022/11/03 02:49:58;;;;;;;10.50;6.43;;;8.10;83.10;;;6.30;100.00;96315.59;4930741;28;20352;-71
2022/11/03 02:52:35;;;;;;;8.57;5.88;;;8.10;83.30;;;6.27;100.00;96306.28;4944034;28;20236;-71
2022/11/03 02:55:21;;;;;;;10.57;6.47;;;8.00;83.20;;;6.26;100.00;96302.03;4965231;28;20123;-68
2022/11/03 02:57:59;;;;;;;12.43;7.15;;;8.00;83.40;;;6.26;100.00;96302.03;4953465;28;20207;-69
2022/11/03 03:00:25;;;;;;;11.20;7.47;;;8.10;83.30;;;6.26;100.00;96291.56;4941889;28;20160;-68
2022/11/03 03:02:58;;;;;;;13.55;8.93;;;8.00;83.60;;;6.27;100.00;96287.16;4908508;28;20350;-72
2022/11/03 03:05:26;;;;;;;14.52;9.45;;;8.00;84.20;;;6.28;100.00;96289.63;4907344;28;20417;-72
2022/11/03 03:07:56;;;;;;;19.17;10.10;;;8.10;84.50;;;6.32;100.00;96284.91;4888378;28;20356;-72
2022/11/03 03:10:29;;;;;;;18.67;11.30;;;8.10;85.00;;;6.35;100.00;96272.34;4888934;28;20505;-72
2022/11/03 03:12:56;;;;;;;23.00;12.18;;;8.20;85.70;;;6.41;100.00;96276.13;4874967;28;20761;-72
2022/11/03 03:15:45;;;;;;;19.88;11.90;;;8.20;86.20;;;6.45;100.00;96264.38;4879211;28;20704;-72
2022/11/03 03:19:00;;;;;;;18.73;11.45;;;8.20;86.20;;;6.51;100.00;96274.19;4888444;28;20333;-72
2022/11/03 03:21:32;;;;;;;27.20;15.57;;;8.30;86.50;;;6.53;100.00;96267.00;4828139;28;20697;-71
2022/11/03 03:24:15;;;;;;;24.85;12.93;;;8.30;86.30;;;6.58;100.00;96284.84;4855264;28;20371;-70
2022/11/03 03:26:45;;;;;;;20.98;11.20;;;8.30;86.30;;;6.62;100.00;96275.69;4890745;28;20406;-69
2022/11/03 03:29:24;;;;;;;24.15;15.52;;;8.40;86.20;;;6.66;100.00;96269.16;4893999;28;20332;-70
2022/11/03 03:31:55;;;;;;;23.58;15.15;;;8.40;86.00;;;6.68;100.00;96265.41;4885728;28;20399;-70
2022/11/03 03:34:21;;;;;;;18.43;12.03;;;8.40;85.90;;;6.68;100.00;96260.19;4882855;28;20470;-70
2022/11/03 03:36:47;;;;;;;17.52;10.63;;;8.40;85.80;;;6.70;100.00;96267.84;4866151;28;20225;-72
2022/11/03 03:39:13;;;;;;;19.75;11.27;;;8.50;85.50;;;6.71;100.00;96270.31;4894479;28;20376;-70
2022/11/03 03:41:39;;;;;;;15.50;10.35;;;8.50;85.40;;;6.70;100.00;96268.69;4851001;28;20359;-70
2022/11/03 03:44:07;;;;;;;17.75;10.93;;;8.40;85.40;;;6.72;100.00;96271.94;4875334;28;20263;-69
2022/11/03 03:46:41;;;;;;;20.27;12.27;;;8.50;85.60;;;6.73;100.00;96268.34;4849247;28;20365;-69
2022/11/03 03:49:07;;;;;;;21.15;11.25;;;8.50;85.50;;;6.75;100.00;96273.41;4873449;28;20431;-70
2022/11/03 03:51:33;;;;;;;18.17;11.27;;;8.50;85.40;;;6.77;100.00;96276.69;4871896;28;20457;-71
2022/11/03 03:53:59;;;;;;;20.73;11.20;;;8.50;85.60;;;6.76;100.00;96269.81;4847787;28;20720;-69
2022/11/03 03:56:35;;;;;;;18.77;10.48;;;8.50;85.10;;;6.78;100.00;96259.19;4882604;28;20382;-70
2022/11/03 03:59:01;;;;;;;12.60;8.00;;;8.50;84.20;;;6.73;100.00;96257.91;4858068;28;20493;-70
2022/11/03 04:01:27;;;;;;;8.30;5.70;;;8.40;82.70;;;6.67;100.00;96258.53;4839664;28;20352;-70
2022/11/03 04:03:53;;;;;;;6.25;4.75;;;8.20;80.80;;;6.59;100.00;96247.28;4858783;28;20216;-72
2022/11/03 04:06:19;;;;;;;16.63;11.23;;;8.20;80.40;;;6.50;100.00;96254.25;4847417;28;20627;-70
2022/11/03 04:08:45;;;;;;;16.75;9.95;;;8.10;81.00;;;6.46;100.00;96255.56;4860809;28;20383;-70
2022/11/03 04:22:15;;;;;;;29.30;11.40;;;8.30;85.90;;;6.52;100.00;96262.75;4894565;28;20267;-70
2022/11/03 04:24:48;;;;;;;41.97;27.58;;;8.30;85.70;;;6.56;100.00;96256.22;4851431;28;20425;-70
2022/11/03 04:27:27;;;;;;;133.27;15.00;;;8.40;86.20;;;6.58;100.00;96254.28;4868839;28;20525;-72
2022/11/03 04:30:17;;;;;;;21.02;12.30;;;8.30;85.60;;;6.60;100.00;96247.09;4873718;28;20506;-71
2022/11/03 04:32:45;;;;;;;19.48;11.18;;;8.40;85.70;;;6.61;100.00;96243.50;4872771;28;20556;-70
2022/11/03 04:35:24;;;;;;;28.08;13.52;;;8.40;84.10;;;6.61;100.00;96243.50;4851812;28;20290;-71
2022/11/03 04:38:22;;;;;;;45.60;16.02;;;8.40;83.60;;;6.62;100.00;96234.69;4853649;28;20468;-70
2022/11/03 04:40:54;;;;;;;92.10;12.18;;;8.40;84.60;;;6.59;100.00;96242.84;4856379;28;20626;-70
2022/11/03 04:43:22;;;;;;;21.23;12.38;;;8.40;85.00;;;6.59;100.00;96224.56;4838133;28;20420;-70
2022/11/03 04:45:48;;;;;;;33.42;12.55;;;8.40;85.50;;;6.60;100.00;96226.19;4851491;28;20467;-70
2022/11/03 04:48:24;;;;;;;31.75;12.45;;;8.40;85.60;;;6.63;100.00;96223.25;4873276;28;20470;-71
2022/11/03 04:51:18;;;;;;;28.77;12.80;;;8.50;85.70;;;6.64;100.00;96219.66;4871241;28;20329;-69
2022/11/03 04:54:08;;;;;;;70.97;13.05;;;8.40;85.80;;;6.66;100.00;96217.72;4874284;28;20809;-70
2022/11/03 04:56:34;;;;;;;30.65;12.10;;;8.50;85.70;;;6.65;100.00;96210.84;4889627;28;20356;-70
2022/11/03 04:59:00;;;;;;;67.32;10.77;;;8.40;85.40;;;6.61;100.00;96206.94;4872254;28;20530;-70
2022/11/03 05:01:27;;;;;;;19.75;10.98;;;8.40;85.20;;;6.62;100.00;96202.50;4887545;28;20565;-70
2022/11/03 05:03:53;;;;;;;40.17;10.73;;;8.40;85.30;;;6.61;100.00;96191.25;4872572;28;20629;-70
2022/11/03 05:06:28;;;;;;;34.47;10.80;;;8.40;85.20;;;6.61;100.00;96191.25;4874115;28;20415;-70
2022/11/03 05:09:10;;;;;;;58.22;11.40;;;8.40;85.30;;;6.61;100.00;96188.63;4871761;28;20369;-67
2022/11/03 05:11:39;;;;;;;43.65;10.93;;;8.40;85.00;;;6.59;100.00;96185.38;4839598;28;20356;-68
2022/11/03 05:14:26;;;;;;;44.15;11.18;;;8.40;85.10;;;6.56;100.00;96183.03;4849017;28;20496;-68
2022/11/03 05:16:53;;;;;;;51.90;11.45;;;8.30;84.80;;;6.53;100.00;96182.56;4849591;28;20343;-65
2022/11/03 05:19:27;;;;;;;39.30;10.35;;;8.30;85.20;;;6.49;100.00;96178.63;4847693;28;20912;-70
2022/11/03 05:21:57;;;;;;;71.13;11.98;;;8.20;84.80;;;6.44;100.00;96177.34;4848384;28;20450;-67
2022/11/03 05:24:24;;;;;;;45.58;10.80;;;8.10;84.70;;;6.41;100.00;96174.22;4852512;28;20407;-70
2022/11/03 05:26:50;;;;;;;43.55;11.00;;;8.10;84.70;;;6.38;100.00;96174.56;4858359;28;20472;-68
2022/11/03 05:29:34;;;;;;;35.42;10.68;;;8.10;85.00;;;6.35;100.00;96159.22;4887246;28;20695;-69
2022/11/03 05:32:00;;;;;;;36.60;16.52;;;8.10;85.00;;;6.34;100.00;96157.56;4866417;28;20357;-70
2022/11/03 05:34:53;;;;;;;35.42;14.68;;;8.10;85.40;;;6.34;100.00;96157.56;4890873;28;20363;-70
2022/11/03 05:37:24;;;;;;;29.27;17.02;;;8.10;85.60;;;6.36;100.00;96150.38;4870068;28;20389;-69
2022/11/03 05:39:51;;;;;;;41.63;13.68;;;8.10;85.50;;;6.36;100.00;96150.38;4889519;28;20296;-70
2022/11/03 05:42:34;;;;;;;25.25;10.38;;;8.10;85.20;;;6.38;100.00;96153.66;4878830;28;20371;-68
2022/11/03 05:45:14;;;;;;;27.25;10.27;;;8.20;85.10;;;6.35;100.00;96153.97;4876379;28;20340;-68
2022/11/03 05:47:40;;;;;;;17.27;10.52;;;8.10;85.10;;;6.37;100.00;96144.19;4878588;28;20423;-70
2022/11/03 05:50:24;;;;;;;45.17;10.20;;;8.20;85.20;;;6.36;100.00;96147.78;4873844;28;20558;-67
2022/11/03 05:52:57;;;;;;;19.77;9.23;;;8.10;84.80;;;6.33;100.00;96146.28;4875475;28;20846;-65
2022/11/03 05:55:29;;;;;;;19.08;9.88;;;8.10;85.00;;;6.35;100.00;96140.91;4861290;28;20218;-66
2022/11/03 05:58:24;;;;;;;33.58;9.85;;;8.10;85.00;;;6.36;100.00;96137.31;4855186;28;20571;-67
2022/11/03 06:00:51;;;;;;;36.33;9.93;;;8.10;84.60;;;6.33;100.00;96135.00;4892066;28;21799;-66
2022/11/03 06:03:23;;;;;;;46.60;9.90;;;8.10;84.70;;;6.32;100.00;96133.38;4889490;28;20607;-66
2022/11/03 06:05:50;;;;;;;15.15;9.50;;;8.10;84.40;;;6.31;100.00;96131.75;4858216;28;20812;-67
2022/11/03 06:08:22;;;;;;;28.55;9.35;;;8.10;84.50;;;6.32;100.00;96138.59;4857696;28;20747;-66
2022/11/03 06:10:56;;;;;;;21.40;8.48;;;8.10;84.50;;;6.30;100.00;96135.34;4857604;28;20361;-65
2022/11/03 06:13:37;;;;;;;17.63;8.88;;;8.10;84.40;;;6.32;100.00;96128.16;4856646;28;20345;-65
2022/11/03 06:16:42;;;;;;;20.35;9.57;;;8.10;84.60;;;6.32;100.00;96128.97;4883479;28;20731;-66
2022/11/03 06:19:29;;;;;;;18.92;9.00;;;8.10;84.50;;;6.32;100.00;96133.38;4883950;28;20492;-66
2022/11/03 06:21:58;;;;;;;13.93;9.60;;;8.20;84.50;;;6.33;100.00;96135.00;4901861;28;20362;-66
2022/11/03 06:24:28;;;;;;;18.48;11.95;;;8.20;84.50;;;6.37;100.00;96141.56;4887403;28;20832;-64
2022/11/03 06:26:56;;;;;;;22.63;12.93;;;8.20;84.70;;;6.40;100.00;96131.59;4852673;28;20350;-65
2022/11/03 06:29:23;;;;;;;27.85;12.35;;;8.30;84.50;;;6.45;100.00;96144.19;4864897;28;20794;-66
2022/11/03 06:31:51;;;;;;;27.33;12.88;;;8.40;84.40;;;6.47;100.00;96134.38;4854686;28;20530;-65
2022/11/03 06:34:44;;;;;;;30.05;10.18;;;8.40;84.30;;;6.53;100.00;96125.88;4838072;28;20252;-65
2022/11/03 06:37:34;;;;;;;32.38;11.00;;;8.50;84.30;;;6.55;100.00;96117.88;4837408;28;20423;-64
2022/11/03 06:40:12;;;;;;;23.25;10.60;;;8.50;84.50;;;6.58;100.00;96121.00;4844753;28;20498;-65
2022/11/03 06:42:38;;;;;;;17.50;11.32;;;8.50;84.60;;;6.61;100.00;96123.28;4857590;28;20326;-62
2022/11/03 06:45:25;;;;;;;23.90;10.75;;;8.50;84.60;;;6.65;100.00;96126.38;4863811;28;20595;-63
2022/11/03 06:47:54;;;;;;;28.30;10.90;;;8.60;84.30;;;6.66;100.00;96115.78;4874136;28;20715;-64
2022/11/03 06:50:31;;;;;;;27.13;10.10;;;8.60;84.10;;;6.65;100.00;96114.13;4854678;28;20294;-62
2022/11/03 06:53:01;;;;;;;26.52;10.23;;;8.50;84.10;;;6.67;100.00;96120.00;4847939;28;20406;-62
2022/11/03 06:55:34;;;;;;;26.90;10.10;;;8.50;84.30;;;6.67;100.00;96106.13;4849380;28;20353;-64
2022/11/03 06:58:34;;;;;;;16.98;9.05;;;8.60;83.80;;;6.69;100.00;96114.63;4867105;28;20426;-63
2022/11/03 07:01:23;;;;;;;27.20;9.52;;;8.60;83.90;;;6.70;100.00;96122.28;4867795;28;20446;-66
2022/11/03 07:03:50;;;;;;;30.83;9.60;;;8.60;83.50;;;6.70;100.00;96106.63;4864096;28;20206;-63
2022/11/03 07:06:25;;;;;;;44.45;11.60;;;8.60;83.90;;;6.70;100.00;96108.41;4837678;28;20360;-63
2022/11/03 07:08:59;;;;;;;17.27;10.88;;;8.60;84.00;;;6.72;100.00;96116.91;4838912;28;20702;-67
2022/11/03 07:11:30;;;;;;;16.48;10.27;;;8.70;84.40;;;6.78;100.00;96110.19;4840266;28;20356;-64
2022/11/03 07:14:26;;;;;;;42.85;9.68;;;8.70;84.40;;;6.83;100.00;96111.34;4858580;28;20332;-65
2022/11/03 07:17:03;;;;;;;28.08;10.48;;;8.70;83.50;;;6.88;100.00;96108.25;4886856;28;20323;-66
2022/11/03 07:19:38;;;;;;;30.88;10.65;;;8.80;84.10;;;6.88;100.00;96098.59;4871895;28;20399;-66
2022/11/03 07:22:14;;;;;;;17.30;10.68;;;8.80;83.90;;;6.92;100.00;96106.91;4890212;28;20738;-65
2022/11/03 07:24:43;;;;;;;28.15;11.07;;;8.90;84.20;;;6.96;100.00;96105.59;4873482;28;20773;-64
2022/11/03 07:27:26;;;;;;;22.75;10.63;;;8.90;83.90;;;6.98;100.00;96106.25;4858880;28;20481;-64
2022/11/03 07:29:58;;;;;;;29.75;10.40;;;8.90;83.60;;;6.98;100.00;96101.00;4855880;28;20357;-64
2022/11/03 07:32:29;;;;;;;21.45;11.70;;;8.90;83.50;;;7.01;100.00;96103.28;4856430;28;20391;-65
2022/11/03 07:35:32;;;;;;;29.55;11.18;;;9.00;83.90;;;7.03;100.00;96098.75;4870447;28;20427;-66
2022/11/03 07:38:01;;;;;;;16.15;10.52;;;9.00;83.60;;;7.07;100.00;96097.41;4887824;28;20485;-65
2022/11/03 07:40:27;;;;;;;14.85;11.00;;;9.10;83.90;;;7.15;100.00;96097.38;4873841;28;20564;-64
2022/11/03 07:42:58;;;;;;;15.50;10.35;;;9.20;83.90;;;7.23;100.00;96097.34;4882840;28;20652;-66
2022/11/03 07:46:02;;;;;;;23.10;9.43;;;9.30;83.50;;;7.28;100.00;96096.88;4884723;28;20318;-64
2022/11/03 07:48:36;;;;;;;23.67;9.48;;;9.30;82.70;;;7.30;100.00;96087.06;4855923;28;20451;-65
2022/11/03 07:51:20;;;;;;;23.05;9.68;;;9.30;82.50;;;7.28;100.00;96079.38;4872272;28;20495;-64
2022/11/03 07:53:46;;;;;;;20.92;10.65;;;9.20;82.10;;;7.26;100.00;96075.31;4870515;28;20484;-65
2022/11/03 07:57:06;;;;;;;11.73;9.15;;;9.20;82.00;;;7.24;100.00;96078.09;4852923;28;20515;-66
2022/11/03 07:59:43;;;;;;;11.07;8.55;;;9.10;82.30;;;7.25;100.00;96073.66;4859634;28;20583;-65
2022/11/03 08:02:42;;;;;;;11.63;9.13;;;9.10;82.20;;;7.31;100.00;96073.81;4850047;28;20383;-64
2022/11/03 08:05:08;;;;;;;10.50;8.77;;;9.30;82.30;;;7.34;100.00;96064.78;4887698;28;20379;-66
2022/11/03 08:07:35;;;;;;;22.48;8.48;;;9.30;81.90;;;7.34;100.00;96057.75;4854836;28;20383;-67
2022/11/03 08:10:01;;;;;;;16.90;9.05;;;9.20;81.30;;;7.33;100.00;96043.06;4871196;28;20375;-65
2022/11/03 08:12:27;;;;;;;14.60;8.75;;;9.30;81.20;;;7.34;100.00;96038.63;4868185;28;20257;-66
2022/11/03 08:14:53;;;;;;;9.93;8.27;;;9.30;81.60;;;7.33;100.00;96029.16;4853896;28;20465;-65
2022/11/03 08:17:19;;;;;;;27.45;8.90;;;9.20;81.40;;;7.26;100.00;96031.63;4855171;28;20805;-66
2022/11/03 08:19:45;;;;;;;18.33;8.93;;;9.10;81.70;;;7.26;100.00;96031.63;4854131;28;20576;-65
2022/11/03 08:22:11;;;;;;;14.35;9.00;;;9.20;81.90;;;7.31;100.00;96025.88;4854464;28;20475;-66
2022/11/03 08:24:37;;;;;;;13.07;9.38;;;9.20;81.90;;;7.40;100.00;96034.50;4869002;28;20499;-67
2022/11/03 08:27:06;;;;;;;14.88;8.52;;;9.40;81.80;;;7.46;100.00;96034.63;4851908;28;20445;-66
2022/11/03 08:29:32;;;;;;;15.43;8.43;;;9.50;81.60;;;7.50;100.00;96024.66;4862215;28;20422;-65
2022/11/03 08:31:59;;;;;;;15.25;8.40;;;9.60;81.10;;;7.53;100.00;96013.84;4860868;28;20392;-65
2022/11/03 08:34:25;;;;;;;15.20;8.18;;;9.60;80.80;;;7.55;100.00;96014.50;4850732;28;20536;-65
2022/11/03 08:36:51;;;;;;;15.00;9.30;;;9.60;80.90;;;7.59;100.00;96011.34;4849986;28;20470;-66
2022/11/03 08:39:17;;;;;;;12.68;8.45;;;9.60;80.80;;;7.62;100.00;96012.81;4875178;28;20517;-64
2022/11/03 08:41:43;;;;;;;16.58;8.90;;;9.70;81.00;;;7.69;100.00;95990.16;4855143;28;20527;-64
2022/11/03 08:44:09;;;;;;;24.90;8.00;;;9.70;80.70;;;7.70;100.00;95991.84;4853716;28;20332;-64
2022/11/03 08:46:35;;;;;;;17.00;8.93;;;9.70;80.40;;;7.74;100.00;95990.50;4854064;28;20459;-65
2022/11/03 08:49:01;;;;;;;11.65;8.70;;;9.80;80.40;;;7.78;100.00;95991.78;4868700;28;20236;-65
2022/11/03 08:51:27;;;;;;;23.35;8.63;;;9.90;80.60;;;7.85;100.00;95984.03;4846497;28;20247;-63
2022/11/03 08:53:54;;;;;;;14.05;9.48;;;9.90;80.10;;;7.90;100.00;95985.13;4843322;28;20559;-64
2022/11/03 08:56:20;;;;;;;10.60;8.75;;;10.00;80.30;;;7.97;100.00;95980.00;4871095;28;20565;-63
2022/11/03 08:58:46;;;;;;;9.73;8.73;;;10.10;80.40;;;8.06;100.00;95980.75;4887568;28;20136;-63
2022/11/03 09:01:13;;;;;;;19.25;8.43;;;10.20;80.30;;;8.14;100.00;95975.44;4853177;28;20297;-64
2022/11/03 09:03:39;;;;;;;10.13;8.90;;;10.40;79.20;;;8.17;100.00;95975.13;4837630;28;20755;-62
2022/11/03 09:06:06;;;;;;;8.32;7.00;;;10.30;79.10;;;8.17;100.00;95968.06;4858139;28;20381;-64
2022/11/03 09:08:32;;;;;;;11.10;8.30;;;10.30;78.20;;;8.23;100.00;95969.16;4904129;28;20352;-64
2022/11/03 09:10:58;;;;;;;11.95;8.82;;;10.40;78.50;;;8.24;100.00;95965.53;4859306;28;20409;-64
2022/11/03 09:13:27;;;;;;;35.65;8.57;;;10.40;78.80;;;8.27;100.00;95965.19;4869988;28;20336;-64
2022/11/03 09:15:53;;;;;;;10.50;7.85;;;10.40;78.10;;;8.28;100.00;95962.38;4906591;28;20071;-67
2022/11/03 09:18:19;;;;;;;58.22;9.25;;;10.40;78.70;;;8.35;100.00;95952.03;4875372;28;20468;-66
2022/11/03 09:20:45;;;;;;;11.35;8.50;;;10.40;77.90;;;8.34;100.00;95947.78;4872468;28;20735;-68
2022/11/03 09:23:11;;;;;;;10.18;8.15;;;10.50;78.50;;;8.40;100.00;95939.22;4839775;28;20396;-66
2022/11/03 09:25:37;;;;;;;15.23;7.75;;;10.60;78.50;;;8.45;100.00;95934.25;4845614;28;20728;-65
2022/11/03 09:28:04;;;;;;;11.65;8.20;;;10.60;78.30;;;8.53;100.00;95939.41;4853028;28;20525;-65
2022/11/03 09:30:30;;;;;;;15.98;8.73;;;10.70;78.00;;;8.62;100.00;95941.94;4859202;28;20455;-63
2022/11/03 09:32:56;;;;;;;11.95;8.38;;;10.80;78.20;;;8.68;100.00;95935.97;4863861;28;20362;-65
2022/11/03 09:35:22;;;;;;;12.27;8.13;;;10.90;78.00;;;8.75;100.00;95934.25;4876311;28;20368;-65
2022/11/03 09:37:48;;;;;;;9.63;8.40;;;11.00;77.90;;;8.83;100.00;95936.81;4859334;28;20619;-66
2022/11/03 09:40:14;;;;;;;11.50;9.18;;;11.00;77.80;;;8.89;100.00;95930.81;4868040;28;20573;-66
2022/11/03 09:42:40;;;;;;;12.30;9.25;;;11.10;77.80;;;8.89;100.00;95933.44;4882055;28;20404;-65
2022/11/03 09:45:08;;;;;;;10.88;9.02;;;11.00;77.60;;;8.94;100.00;95930.25;4870147;28;20492;-67
2022/11/03 09:47:41;;;;;;;12.10;9.02;;;11.10;77.60;;;8.99;100.00;95931.34;4874889;28;20301;-65
2022/11/03 09:50:16;;;;;;;9.02;8.13;;;11.10;77.70;;;9.06;100.00;95934.06;4859054;28;20207;-64
2022/11/03 09:52:42;;;;;;;22.48;8.57;;;11.20;77.50;;;9.13;100.00;95927.88;4854998;28;20573;-66
2022/11/03 09:55:14;;;;;;;10.50;8.35;;;11.30;76.90;;;9.19;100.00;95927.16;4887183;28;20352;-65
2022/11/03 09:57:40;;;;;;;11.18;8.77;;;11.40;77.00;;;9.27;100.00;95914.91;4904691;28;20371;-67
2022/11/03 10:00:18;;;;;;;9.70;8.48;;;11.50;76.70;;;9.37;100.00;95910.19;4858510;28;20364;-67
2022/11/03 10:02:44;;;;;;;9.50;8.07;;;11.60;77.10;;;9.41;100.00;95906.19;4856624;28;20452;-65
2022/11/03 10:05:25;;;;;;;11.68;8.32;;;11.60;75.50;;;9.41;100.00;95901.75;4856384;28;20407;-66
2022/11/03 10:07:53;;;;;;;10.93;8.40;;;11.60;75.40;;;9.42;100.00;95902.56;4897758;28;20315;-65
2022/11/03 10:10:19;;;;;;;10.50;8.75;;;11.70;75.70;;;9.50;100.00;95894.56;4885702;28;20506;-64
2022/11/03 10:12:47;;;;;;;9.60;8.55;;;11.90;75.20;;;9.66;100.00;95888.25;4884026;28;20304;-67
2022/11/03 10:15:16;;;;;;;12.07;8.23;;;12.10;75.10;;;9.79;100.00;95878.69;4905416;28;20353;-63
2022/11/03 10:17:43;;;;;;;9.05;8.02;;;12.30;73.60;;;9.88;100.00;95876.72;4895806;28;20288;-65
2022/11/03 10:20:14;;;;;;;10.05;8.02;;;12.40;73.30;;;9.97;100.00;95880.03;4858666;28;20495;-64
2022/11/03 10:22:41;;;;;;;;;;;12.40;73.60;;;10.06;100.00;95884.16;4860017;28;20364;-64
2022/11/03 10:25:40;;;;;;;9.00;8.07;;;12.40;73.90;;;10.11;100.00;95876.50;4875902;28;20272;-65
2022/11/03 10:28:19;;;;;;;9.05;8.07;;;12.40;74.00;;;10.15;100.00;95872.47;4875775;28;20798;-66
2022/11/03 10:31:07;;;;;;;10.18;8.88;;;12.40;74.00;;;10.18;100.00;95861.56;4890360;28;20460;-64
2022/11/03 10:33:41;;;;;;;9.85;8.70;;;12.50;74.00;;;10.28;100.00;95864.72;4859811;28;20762;-64
2022/11/03 10:36:16;;;;;;;10.48;7.68;;;12.60;72.70;;;10.41;100.00;95862.19;4861342;28;20499;-64
2022/11/03 10:38:43;;;;;;;9.93;8.20;;;12.90;72.70;;;10.55;100.00;95852.53;4906923;28;20344;-64
2022/11/03 10:41:23;;;;;;;10.68;7.72;;;13.10;71.90;;;10.69;100.00;95858.69;4855953;28;20404;-64
2022/11/03 10:44:19;;;;;;;8.32;7.50;;;13.20;70.70;;;10.88;100.00;95860.59;4864475;28;20809;-62
2022/11/03 10:47:01;;;;;;;8.65;7.75;;;13.60;70.10;;;11.07;100.00;95845.03;4848601;28;20033;-64
2022/11/03 10:49:31;;;;;;;10.23;7.63;;;14.20;68.70;;;11.35;100.00;95848.38;4875233;28;20426;-65
2022/11/03 10:52:28;;;;;;;9.63;7.35;;;14.70;66.90;;;11.70;100.00;95835.03;4878394;28;20367;-65
2022/11/03 10:54:56;;;;;;;12.07;7.68;;;15.40;65.70;;;12.02;100.00;95836.09;4907918;28;20419;-64